Time;durP1;ratioP1;P1;durP2;ratioP2;P2;SDS_P1;SDS_P2;PMS_P1;PMS_P2;Temp;Humidity;BMP_temperature;BMP_pressure;BME280_temperature;BME280_humidity;BME280_pressure;Samples;Min_cycle;Max_cycle;Signal;HPM_P1;HPM_P2
2023/03/24 00:01:14;;;;;;;5.25;1.45;;;9.60;99.90;;;;;;5058239;28;20482;-85
2023/03/24 00:03:44;;;;;;;7.38;1.58;;;9.60;99.90;;;;;;5074387;28;20044;-85
2023/03/24 00:06:12;;;;;;;8.48;1.50;;;9.50;99.90;;;;;;5058463;28;20493;-84
2023/03/24 00:08:40;;;;;;;7.03;1.55;;;9.50;99.90;;;;;;5054553;28;20044;-85
2023/03/24 00:11:06;;;;;;;5.63;1.58;;;9.50;99.90;;;;;;5054763;28;20359;-85
2023/03/24 00:13:36;;;;;;;16.45;2.88;;;9.50;99.90;;;;;;5038213;28;20148;-85
2023/03/24 00:16:05;;;;;;;7.70;1.65;;;9.50;99.90;;;;;;5037823;28;20065;-84
2023/03/24 00:18:31;;;;;;;13.10;1.83;;;9.50;99.90;;;;;;5038340;28;20044;-84
2023/03/24 00:20:59;;;;;;;20.27;2.00;;;9.40;99.90;;;;;;5054784;28;20044;-85
2023/03/24 00:23:25;;;;;;;12.32;2.13;;;9.40;99.90;;;;;;5053861;28;20123;-85
2023/03/24 00:25:53;;;;;;;11.70;1.85;;;9.40;99.90;;;;;;5055458;28;20365;-83
2023/03/24 00:28:20;;;;;;;13.63;2.38;;;9.40;99.90;;;;;;5038058;28;20048;-84
2023/03/24 00:30:51;;;;;;;9.55;2.17;;;9.40;99.90;;;;;;5053547;28;20041;-85
2023/03/24 00:33:19;;;;;;;;;;;9.40;99.90;;;;;;5054903;28;20051;-84
2023/03/24 00:35:47;;;;;;;14.68;1.80;;;9.40;99.90;;;;;;5037053;28;20322;-84
2023/03/24 00:38:14;;;;;;;9.73;2.53;;;9.40;99.90;;;;;;5054493;28;20053;-85
2023/03/24 00:40:43;;;;;;;14.82;1.85;;;9.40;99.90;;;;;;5037610;28;20349;-83
2023/03/24 00:43:12;;;;;;;12.05;1.98;;;9.40;99.90;;;;;;5053501;28;20044;-85
2023/03/24 00:45:44;;;;;;;11.07;2.15;;;9.40;99.90;;;;;;5037580;28;20084;-84
2023/03/24 00:48:11;;;;;;;16.83;2.28;;;9.40;99.90;;;;;;5053969;28;20045;-84
2023/03/24 00:50:38;;;;;;;9.65;1.70;;;9.40;99.90;;;;;;5052793;28;20029;-84
2023/03/24 00:53:05;;;;;;;12.05;2.38;;;9.40;99.90;;;;;;5054110;28;20033;-84
2023/03/24 00:55:32;;;;;;;15.52;2.65;;;9.30;99.90;;;;;;5053520;28;20055;-84
2023/03/24 00:58:00;;;;;;;32.63;2.50;;;9.30;99.90;;;;;;5037800;28;20055;-84
2023/03/24 01:00:26;;;;;;;17.67;2.20;;;9.30;99.90;;;;;;5055886;28;20477;-84
2023/03/24 01:02:53;;;;;;;15.50;2.67;;;9.30;99.90;;;;;;5056496;28;20044;-85
2023/03/24 01:05:20;;;;;;;12.95;1.85;;;9.20;99.90;;;;;;5073321;28;20029;-84
2023/03/24 01:10:52;;;;;;;16.65;3.13;;;9.20;99.90;;;;;;5074582;28;20082;-84
2023/03/24 01:13:19;;;;;;;20.88;2.22;;;9.20;99.90;;;;;;5057257;28;20036;-85
2023/03/24 01:18:31;;;;;;;16.70;2.47;;;9.10;99.90;;;;;;5073874;28;20078;-84
2023/03/24 01:20:57;;;;;;;12.65;2.17;;;9.10;99.90;;;;;;5073734;28;20044;-85
2023/03/24 01:23:24;;;;;;;9.82;2.28;;;9.10;99.90;;;;;;5056246;28;20048;-85
2023/03/24 01:25:51;;;;;;;12.25;1.92;;;9.10;99.90;;;;;;5074465;28;20467;-85
2023/03/24 01:28:20;;;;;;;11.45;2.00;;;9.20;99.90;;;;;;5057123;28;20106;-84
2023/03/24 01:30:47;;;;;;;8.70;1.88;;;9.20;99.90;;;;;;5056291;28;20043;-84
2023/03/24 01:33:13;;;;;;;7.10;1.98;;;9.30;99.90;;;;;;5073731;28;20055;-84
2023/03/24 01:35:42;;;;;;;15.18;2.50;;;9.30;99.90;;;;;;5072690;28;20048;-83
2023/03/24 01:38:09;;;;;;;19.70;2.20;;;9.40;99.90;;;;;;5074944;28;20036;-84
2023/03/24 01:40:36;;;;;;;13.27;2.45;;;9.40;99.90;;;;;;5058009;28;20363;-84
2023/03/24 01:43:02;;;;;;;11.55;2.13;;;9.40;99.90;;;;;;5072618;28;20063;-83
2023/03/24 01:45:29;;;;;;;14.90;2.03;;;9.40;99.90;;;;;;5053572;28;20057;-84
2023/03/24 01:47:56;;;;;;;14.63;2.00;;;9.40;99.90;;;;;;5036841;28;20041;-84
2023/03/24 01:50:23;;;;;;;13.38;2.10;;;9.30;99.90;;;;;;5036123;28;20052;-84
2023/03/24 01:52:50;;;;;;;13.65;2.45;;;9.30;99.90;;;;;;5054349;28;20037;-83
2023/03/24 01:55:18;;;;;;;19.23;2.30;;;9.30;99.90;;;;;;5035792;28;20387;-84
2023/03/24 01:57:48;;;;;;;13.43;2.45;;;9.30;99.90;;;;;;5020811;28;20132;-84
2023/03/24 02:00:15;;;;;;;14.95;2.20;;;9.20;99.90;;;;;;5034944;28;20136;-83
2023/03/24 02:03:02;;;;;;;15.40;2.20;;;9.20;99.90;;;;;;5075503;28;20052;-83
2023/03/24 02:05:33;;;;;;;15.45;1.73;;;9.10;99.90;;;;;;5060334;28;20536;-84
2023/03/24 02:08:00;;;;;;;15.13;1.83;;;9.10;99.90;;;;;;5060479;28;20056;-84
2023/03/24 02:10:27;;;;;;;10.23;1.67;;;9.00;99.90;;;;;;5059558;28;20046;-84
2023/03/24 02:12:54;;;;;;;17.40;1.80;;;9.00;99.90;;;;;;5060479;28;20044;-84
2023/03/24 02:15:21;;;;;;;16.73;2.28;;;9.00;99.90;;;;;;5059342;28;20372;-84
2023/03/24 02:17:48;;;;;;;13.68;1.95;;;8.90;99.90;;;;;;5060371;28;20045;-84
2023/03/24 02:20:15;;;;;;;17.30;2.15;;;8.90;99.90;;;;;;5060311;28;20048;-84
2023/03/24 02:22:42;;;;;;;20.85;2.30;;;8.90;99.90;;;;;;5042969;28;20045;-84
2023/03/24 02:25:09;;;;;;;13.15;2.40;;;8.90;99.90;;;;;;5059887;28;20048;-84
2023/03/24 02:27:40;;;;;;;13.75;2.15;;;8.90;99.90;;;;;;5060150;28;20079;-84
2023/03/24 02:30:08;;;;;;;12.50;1.67;;;8.90;99.90;;;;;;5059687;28;20041;-82
2023/03/24 02:32:35;;;;;;;17.67;3.45;;;8.80;99.90;;;;;;5043672;28;20040;-84
2023/03/24 02:35:01;;;;;;;12.55;1.88;;;8.80;99.90;;;;;;5059634;28;20409;-84
2023/03/24 02:40:16;;;;;;;21.85;2.90;;;8.80;99.90;;;;;;5060482;28;20045;-83
2023/03/24 02:42:43;;;;;;;18.35;1.98;;;8.80;99.90;;;;;;5059149;28;20040;-83
2023/03/24 02:45:10;;;;;;;21.45;2.55;;;8.80;99.90;;;;;;5059460;28;20136;-84
2023/03/24 02:47:37;;;;;;;19.05;1.88;;;8.70;99.90;;;;;;5059713;28;20068;-84
2023/03/24 02:50:04;;;;;;;12.02;2.67;;;8.70;99.90;;;;;;5058996;28;20119;-83
2023/03/24 02:52:31;;;;;;;12.32;2.22;;;8.70;99.90;;;;;;5059981;28;20107;-83
2023/03/24 02:54:59;;;;;;;11.05;1.95;;;8.70;99.90;;;;;;5043048;28;20044;-83
2023/03/24 03:00:31;;;;;;;17.77;2.20;;;8.60;99.90;;;;;;5061927;28;20052;-84
2023/03/24 03:03:04;;;;;;;15.82;2.45;;;8.60;99.90;;;;;;5056302;28;20049;-84
2023/03/24 03:05:31;;;;;;;17.42;2.20;;;8.60;99.90;;;;;;5039273;28;20479;-83
2023/03/24 03:07:58;;;;;;;23.05;2.45;;;8.50;99.90;;;;;;5023094;28;20037;-83
2023/03/24 03:10:25;;;;;;;14.77;2.63;;;8.50;99.90;;;;;;5022320;28;20140;-83
2023/03/24 03:12:51;;;;;;;11.85;1.60;;;8.60;99.90;;;;;;5039226;28;20052;-83
2023/03/24 03:15:18;;;;;;;19.15;2.08;;;8.50;99.90;;;;;;5038767;28;20143;-84
2023/03/24 03:17:47;;;;;;;11.57;1.85;;;8.50;99.90;;;;;;5022886;28;20214;-84
2023/03/24 03:20:16;;;;;;;16.60;2.65;;;8.40;99.90;;;;;;5039290;28;20107;-83
2023/03/24 03:22:43;;;;;;;17.83;2.42;;;8.50;99.90;;;;;;5038784;28;20041;-83
2023/03/24 03:25:10;;;;;;;13.48;2.15;;;8.50;99.90;;;;;;5038834;28;20041;-83
2023/03/24 03:30:23;;;;;;;11.13;1.73;;;8.50;99.90;;;;;;5038302;28;20077;-83
2023/03/24 03:32:53;;;;;;;15.35;2.28;;;8.50;99.90;;;;;;5039013;28;20056;-84
2023/03/24 03:35:21;;;;;;;13.48;2.45;;;8.40;99.90;;;;;;5038351;28;20498;-84
2023/03/24 03:40:35;;;;;;;26.80;3.63;;;8.40;99.90;;;;;;5038871;28;20049;-83
2023/03/24 03:43:10;;;;;;;20.50;2.50;;;8.30;99.90;;;;;;5022846;28;20037;-84
2023/03/24 03:45:37;;;;;;;20.60;2.15;;;8.30;99.90;;;;;;5040758;28;20437;-83
2023/03/24 03:48:04;;;;;;;20.25;1.83;;;8.30;99.90;;;;;;5022317;28;20040;-84
2023/03/24 03:50:31;;;;;;;12.30;2.33;;;8.30;99.90;;;;;;5037807;28;20071;-84
2023/03/24 03:53:03;;;;;;;23.42;2.40;;;8.30;99.90;;;;;;5038631;28;20037;-83
2023/03/24 03:55:31;;;;;;;22.20;2.70;;;8.30;99.90;;;;;;5037615;28;20127;-83
2023/03/24 03:57:57;;;;;;;19.38;2.38;;;8.30;99.90;;;;;;5022125;28;20048;-84
2023/03/24 04:00:32;;;;;;;17.70;2.17;;;8.30;99.90;;;;;;5038808;28;20052;-84
2023/03/24 04:03:17;;;;;;;22.50;2.95;;;8.30;99.90;;;;;;5057635;28;20098;-84
2023/03/24 04:08:30;;;;;;;29.60;2.72;;;8.30;99.90;;;;;;5057352;28;20055;-84
2023/03/24 04:11:12;;;;;;;20.60;2.75;;;8.30;99.90;;;;;;5060697;28;20052;-84
2023/03/24 04:14:07;;;;;;;19.55;2.70;;;8.30;99.90;;;;;;5075365;28;20036;-84
2023/03/24 04:19:37;;;;;;;29.67;3.45;;;8.30;99.90;;;;;;5059015;28;20044;-84
2023/03/24 04:22:04;;;;;;;21.25;2.60;;;8.30;99.90;;;;;;5057239;28;20483;-84
2023/03/24 04:24:33;;;;;;;18.90;3.38;;;8.30;99.90;;;;;;5057172;28;20055;-84
2023/03/24 04:30:06;;;;;;;23.85;2.63;;;8.30;99.90;;;;;;5057078;28;20039;-84
2023/03/24 04:32:33;;;;;;;19.45;2.00;;;8.30;99.90;;;;;;5057759;28;20037;-83
2023/03/24 04:35:00;;;;;;;18.05;2.30;;;8.30;99.90;;;;;;5057479;28;20127;-84
2023/03/24 04:37:46;;;;;;;23.63;3.58;;;8.30;99.90;;;;;;5075575;28;20494;-83
2023/03/24 04:40:19;;;;;;;20.33;2.20;;;8.20;99.90;;;;;;5043030;28;20055;-84
2023/03/24 04:42:46;;;;;;;17.40;2.75;;;8.30;99.90;;;;;;5056625;28;20135;-83
2023/03/24 04:45:13;;;;;;;17.50;2.75;;;8.30;99.90;;;;;;5057274;28;20051;-84
2023/03/24 04:47:59;;;;;;;36.13;2.80;;;8.30;99.90;;;;;;5074117;28;20056;-83
2023/03/24 04:50:37;;;;;;;25.75;2.92;;;8.30;99.90;;;;;;5073256;28;20048;-83
2023/03/24 04:53:08;;;;;;;21.27;2.30;;;8.30;99.90;;;;;;5074417;28;20041;-83
2023/03/24 04:58:48;;;;;;;19.00;2.45;;;8.30;99.90;;;;;;5074084;28;20110;-83
2023/03/24 05:01:15;;;;;;;17.30;1.90;;;8.20;99.90;;;;;;5073900;28;20540;-83
2023/03/24 05:03:52;;;;;;;14.75;2.10;;;8.20;99.90;;;;;;5057476;28;20434;-83
2023/03/24 05:06:19;;;;;;;7.53;1.73;;;8.20;99.90;;;;;;5057142;28;20423;-83
2023/03/24 05:08:46;;;;;;;18.23;2.42;;;8.20;99.90;;;;;;5056475;28;20596;-83
2023/03/24 05:11:13;;;;;;;18.23;2.47;;;8.20;99.90;;;;;;5057200;28;20051;-83
2023/03/24 05:13:47;;;;;;;22.40;2.28;;;8.20;99.90;;;;;;5058193;28;20151;-83
2023/03/24 05:16:14;;;;;;;22.17;3.53;;;8.20;99.90;;;;;;5056347;28;20053;-83
2023/03/24 05:18:50;;;;;;;12.32;2.15;;;8.20;99.90;;;;;;5073804;28;20051;-83
2023/03/24 05:21:19;;;;;;;16.33;2.58;;;8.20;99.90;;;;;;5057126;28;20048;-82
2023/03/24 05:23:46;;;;;;;15.18;2.75;;;8.20;99.90;;;;;;5056134;28;20072;-83
2023/03/24 05:29:17;;;;;;;15.23;2.63;;;8.20;99.90;;;;;;5072837;28;20052;-83
2023/03/24 05:31:44;;;;;;;38.78;2.80;;;8.10;99.90;;;;;;5073681;28;20110;-83
2023/03/24 05:34:16;;;;;;;14.45;2.60;;;8.10;99.90;;;;;;5057550;28;20123;-84
2023/03/24 05:36:52;;;;;;;11.07;1.90;;;8.20;99.90;;;;;;5073353;28;20044;-83
2023/03/24 05:39:20;;;;;;;17.85;2.70;;;8.10;99.90;;;;;;5078985;28;20052;-83
2023/03/24 05:42:02;;;;;;;28.65;2.78;;;8.10;99.90;;;;;;5063211;28;20043;-84
2023/03/24 05:44:29;;;;;;;21.83;2.47;;;8.20;99.90;;;;;;5077392;28;20118;-84
2023/03/24 05:47:03;;;;;;;23.80;2.95;;;8.10;99.90;;;;;;5091554;28;20075;-84
2023/03/24 05:49:30;;;;;;;17.52;2.47;;;8.10;99.90;;;;;;5080888;28;20134;-84
2023/03/24 05:51:59;;;;;;;12.73;1.90;;;8.10;99.90;;;;;;5081849;28;20036;-83
2023/03/24 05:54:26;;;;;;;16.77;2.83;;;8.10;99.90;;;;;;5097808;28;20469;-83
2023/03/24 05:57:06;;;;;;;20.38;2.67;;;8.10;99.90;;;;;;5098016;28;20131;-83
2023/03/24 05:59:44;;;;;;;16.75;2.35;;;8.10;99.90;;;;;;5098323;28;20060;-84
2023/03/24 06:02:34;;;;;;;15.50;2.80;;;8.10;99.90;;;;;;5089979;28;20048;-83
2023/03/24 06:05:07;;;;;;;22.03;2.50;;;8.10;99.90;;;;;;5097638;28;20048;-83
2023/03/24 06:07:37;;;;;;;17.48;2.47;;;8.10;99.90;;;;;;5097402;28;20051;-83
2023/03/24 06:10:06;;;;;;;21.90;3.03;;;8.10;99.90;;;;;;5096846;28;20399;-84
2023/03/24 06:12:41;;;;;;;16.52;2.28;;;8.10;99.90;;;;;;5097704;28;20050;-83
2023/03/24 06:15:08;;;;;;;21.95;2.95;;;8.10;99.90;;;;;;5097301;28;20490;-83
2023/03/24 06:17:36;;;;;;;18.33;2.42;;;8.10;99.90;;;;;;5097393;28;20039;-83
2023/03/24 06:20:14;;;;;;;9.52;1.73;;;8.10;99.90;;;;;;5097465;28;20105;-83
2023/03/24 06:22:49;;;;;;;15.82;2.70;;;8.10;99.90;;;;;;5080931;28;20048;-83
2023/03/24 06:25:26;;;;;;;20.63;2.17;;;8.10;99.90;;;;;;5096983;28;20044;-83
2023/03/24 06:28:04;;;;;;;25.15;2.28;;;8.10;99.90;;;;;;5097210;28;20471;-83
2023/03/24 06:30:32;;;;;;;20.80;2.40;;;8.10;99.90;;;;;;5096576;28;20466;-83
2023/03/24 06:32:59;;;;;;;13.35;2.60;;;8.10;99.90;;;;;;5097276;28;20047;-84
2023/03/24 06:35:27;;;;;;;23.50;2.78;;;8.20;99.90;;;;;;5079123;28;20055;-83
2023/03/24 06:38:06;;;;;;;14.15;2.47;;;8.30;99.90;;;;;;5096756;28;20044;-84
2023/03/24 06:40:33;;;;;;;13.43;2.65;;;8.30;99.90;;;;;;5079785;28;20071;-83
2023/03/24 06:43:00;;;;;;;13.82;1.83;;;8.30;99.90;;;;;;5079116;28;20050;-84
2023/03/24 06:45:28;;;;;;;22.65;3.13;;;8.30;99.90;;;;;;5079155;28;20055;-83
2023/03/24 06:47:57;;;;;;;14.55;1.88;;;8.40;99.90;;;;;;5059181;28;20493;-83
2023/03/24 06:50:25;;;;;;;16.75;2.42;;;8.40;99.90;;;;;;5058901;28;20043;-83
2023/03/24 06:52:53;;;;;;;11.35;1.75;;;8.50;99.90;;;;;;5059588;28;20098;-83
2023/03/24 06:55:21;;;;;;;17.02;1.58;;;8.50;99.90;;;;;;5058612;28;20475;-84
2023/03/24 07:00:45;;;;;;;20.52;2.53;;;8.60;99.90;;;;;;5059877;28;20066;-83
2023/03/24 07:03:30;;;;;;;14.60;2.38;;;8.70;99.90;;;;;;5058406;28;20056;-84
2023/03/24 07:06:24;;;;;;;19.88;2.97;;;8.80;99.90;;;;;;5059582;28;20522;-83
2023/03/24 07:08:54;;;;;;;13.40;2.20;;;8.90;99.90;;;;;;5058666;28;20067;-83
2023/03/24 07:11:24;;;;;;;13.68;2.40;;;8.90;99.90;;;;;;5059349;28;20040;-83
2023/03/24 07:13:53;;;;;;;17.77;2.55;;;9.00;99.90;;;;;;5059172;28;20478;-83
2023/03/24 07:16:22;;;;;;;17.38;2.90;;;9.10;99.90;;;;;;5058903;28;20052;-84
2023/03/24 07:19:00;;;;;;;21.67;2.53;;;9.10;99.90;;;;;;5062676;28;20538;-84
2023/03/24 07:21:28;;;;;;;20.35;3.38;;;9.20;99.90;;;;;;5060587;28;20052;-85
2023/03/24 07:23:57;;;;;;;16.80;3.10;;;9.30;99.90;;;;;;5058061;28;20052;-83
2023/03/24 07:26:32;;;;;;;16.50;3.13;;;9.30;99.90;;;;;;5058995;28;20055;-84
2023/03/24 07:29:10;;;;;;;18.98;2.50;;;9.40;99.90;;;;;;5058139;28;20102;-83
2023/03/24 07:31:59;;;;;;;18.60;2.42;;;9.50;99.90;;;;;;5059407;28;20052;-84
2023/03/24 07:34:26;;;;;;;17.70;2.45;;;9.60;99.90;;;;;;5058653;28;20070;-84
2023/03/24 07:39:40;;;;;;;26.48;2.88;;;9.80;99.90;;;;;;5058885;28;20131;-83
2023/03/24 07:42:08;;;;;;;15.73;2.50;;;9.90;99.90;;;;;;5057835;28;20402;-83
2023/03/24 07:44:52;;;;;;;20.60;2.63;;;9.90;99.90;;;;;;5038662;28;20056;-83
2023/03/24 07:47:19;;;;;;;15.88;2.33;;;10.00;99.90;;;;;;5050202;28;20474;-84
2023/03/24 07:49:46;;;;;;;16.52;2.63;;;10.10;99.90;;;;;;5057983;28;20064;-84
2023/03/24 07:52:13;;;;;;;17.35;2.35;;;10.10;99.90;;;;;;5057544;28;20044;-83
2023/03/24 07:54:43;;;;;;;16.83;2.83;;;10.20;99.90;;;;;;5038795;28;20135;-84
2023/03/24 07:57:22;;;;;;;19.52;2.42;;;10.30;99.90;;;;;;5039258;28;20045;-83
2023/03/24 07:59:49;;;;;;;28.98;3.17;;;10.40;99.90;;;;;;5063810;28;20383;-83
2023/03/24 08:02:38;;;;;;;18.00;2.22;;;10.50;99.90;;;;;;5075097;28;20044;-83
2023/03/24 08:05:37;;;;;;;19.88;2.60;;;10.60;99.90;;;;;;5062750;28;20091;-83
2023/03/24 08:08:28;;;;;;;26.80;2.80;;;10.60;99.90;;;;;;5074378;28;20124;-83
2023/03/24 08:10:55;;;;;;;20.52;2.20;;;10.70;99.90;;;;;;5074872;28;20043;-84
2023/03/24 08:13:21;;;;;;;20.38;3.38;;;10.80;99.90;;;;;;5074723;28;20048;-84
2023/03/24 08:15:48;;;;;;;13.73;2.10;;;10.90;99.90;;;;;;5074188;28;20044;-84
2023/03/24 08:18:15;;;;;;;17.63;2.03;;;10.90;99.90;;;;;;5074583;28;20040;-83
2023/03/24 08:20:42;;;;;;;14.77;2.50;;;11.00;99.90;;;;;;5074688;28;20132;-84
2023/03/24 08:23:09;;;;;;;13.10;2.20;;;11.10;99.90;;;;;;5073768;28;20040;-82
2023/03/24 08:25:38;;;;;;;16.27;2.33;;;11.20;99.90;;;;;;5074882;28;20115;-84
2023/03/24 08:28:05;;;;;;;16.55;2.50;;;11.20;99.90;;;;;;5075365;28;20047;-83
2023/03/24 08:30:35;;;;;;;17.85;2.42;;;11.30;99.90;;;;;;5073745;28;20072;-84
2023/03/24 08:33:02;;;;;;;10.68;3.20;;;11.30;99.90;;;;;;5058417;28;20040;-84
2023/03/24 08:35:28;;;;;;;17.98;2.42;;;11.40;99.90;;;;;;5073473;28;20040;-84
2023/03/24 08:37:58;;;;;;;14.05;2.40;;;11.50;99.90;;;;;;5057801;28;20353;-84
2023/03/24 08:40:24;;;;;;;20.95;2.33;;;11.50;99.90;;;;;;5074804;28;20052;-84
2023/03/24 08:42:51;;;;;;;17.92;2.55;;;11.60;99.90;;;;;;5057029;28;20469;-84
2023/03/24 08:45:19;;;;;;;19.33;2.70;;;11.60;99.90;;;;;;5074130;28;20459;-83
2023/03/24 08:47:48;;;;;;;21.83;2.10;;;11.60;99.90;;;;;;5057533;28;20056;-87
2023/03/24 08:50:17;;;;;;;16.58;2.03;;;11.60;99.90;;;;;;5074387;28;20112;-83
2023/03/24 08:52:46;;;;;;;14.55;2.28;;;11.60;99.90;;;;;;5057527;28;20051;-84
2023/03/24 08:55:19;;;;;;;18.63;1.90;;;11.70;99.90;;;;;;5073091;28;20045;-84
2023/03/24 08:57:47;;;;;;;16.48;3.08;;;11.80;99.90;;;;;;5057408;28;20044;-84
2023/03/24 09:00:14;;;;;;;14.00;2.17;;;11.90;99.90;;;;;;5075258;28;20040;-84
2023/03/24 09:02:41;;;;;;;18.08;2.50;;;12.00;99.90;;;;;;5075762;28;20048;-83
2023/03/24 09:05:08;;;;;;;17.63;2.10;;;12.10;99.90;;;;;;5073764;28;20492;-84
2023/03/24 09:10:21;;;;;;;13.98;1.95;;;12.30;99.90;;;;;;5073635;28;20044;-84
2023/03/24 09:12:48;;;;;;;13.02;1.80;;;12.50;99.90;;;;;;5076380;28;20040;-83
2023/03/24 09:15:14;;;;;;;16.52;1.95;;;12.70;99.90;;;;;;5083091;28;20052;-84
2023/03/24 09:17:43;;;;;;;13.35;2.13;;;12.70;99.90;;;;;;5055045;28;20432;-84
2023/03/24 09:20:10;;;;;;;12.80;2.05;;;12.60;99.90;;;;;;5053833;28;20053;-84
2023/03/24 09:22:37;;;;;;;12.52;2.15;;;12.60;99.90;;;;;;5052982;28;20095;-84
2023/03/24 09:25:04;;;;;;;11.88;1.90;;;12.60;99.90;;;;;;5053394;28;20148;-84
2023/03/24 09:27:32;;;;;;;19.08;2.25;;;12.50;99.90;;;;;;5053527;28;20452;-84
2023/03/24 09:29:58;;;;;;;17.25;2.10;;;12.30;99.90;;;;;;5053078;28;20051;-84
2023/03/24 09:32:25;;;;;;;20.02;2.33;;;12.30;99.90;;;;;;5053915;28;20463;-85
2023/03/24 09:34:52;;;;;;;15.38;1.95;;;12.40;99.90;;;;;;5053635;28;20041;-86
2023/03/24 09:40:06;;;;;;;16.38;2.05;;;12.90;99.90;;;;;;5053739;28;20064;-88
2023/03/24 09:42:33;;;;;;;14.40;2.30;;;13.10;99.90;;;;;;5036466;28;20041;-85
2023/03/24 09:45:00;;;;;;;18.10;2.10;;;13.10;99.90;;;;;;5036996;28;20053;-86
2023/03/24 09:50:13;;;;;;;12.43;2.88;;;13.40;99.90;;;;;;5053008;28;20048;-86
2023/03/24 09:52:40;;;;;;;11.48;2.00;;;13.50;99.90;;;;;;5037196;28;20045;-85
2023/03/24 09:55:09;;;;;;;14.10;2.25;;;13.50;99.90;;;;;;5053006;28;20067;-85
2023/03/24 09:57:36;;;;;;;14.38;2.15;;;13.50;99.90;;;;;;5037143;28;20375;-85
2023/03/24 10:00:05;;;;;;;10.35;1.85;;;13.60;99.90;;;;;;5065949;28;20045;-87
2023/03/24 10:02:37;;;;;;;16.83;2.13;;;14.20;99.90;;;;;;5073340;28;20397;-85
2023/03/24 10:05:04;;;;;;;14.75;2.10;;;14.70;99.90;;;;;;5074561;28;20123;-85
2023/03/24 10:10:01;;;;;;;16.73;2.35;;;14.10;99.90;;;;;;5073809;28;20050;-86
2023/03/24 10:12:27;;;;;;;15.88;2.05;;;14.00;99.90;;;;;;5074492;28;20101;-88
2023/03/24 10:14:54;;;;;;;11.70;2.10;;;14.10;99.90;;;;;;5056661;28;20052;-85
2023/03/24 10:17:21;;;;;;;13.70;2.30;;;14.20;99.90;;;;;;5056049;28;20478;-85
2023/03/24 10:19:47;;;;;;;13.70;1.83;;;14.40;99.90;;;;;;5073358;28;20057;-85
2023/03/24 10:22:14;;;;;;;13.80;2.10;;;14.20;99.90;;;;;;5055785;28;20045;-86
2023/03/24 10:24:43;;;;;;;11.80;2.20;;;14.30;99.90;;;;;;5059870;28;20098;-86
2023/03/24 10:27:12;;;;;;;10.75;2.67;;;14.40;99.90;;;;;;5078118;28;20054;-87
2023/03/24 10:29:39;;;;;;;14.93;2.22;;;14.60;99.90;;;;;;5059674;28;20047;-86
2023/03/24 10:32:05;;;;;;;11.27;1.92;;;14.60;99.90;;;;;;5076648;28;20363;-85
2023/03/24 10:34:32;;;;;;;19.25;2.20;;;14.30;99.90;;;;;;5077066;28;20045;-86
2023/03/24 10:37:04;;;;;;;10.13;1.98;;;13.90;99.90;;;;;;5059671;28;20471;-86
2023/03/24 10:39:30;;;;;;;14.30;2.25;;;14.10;99.90;;;;;;5077927;28;20082;-87
2023/03/24 10:42:10;;;;;;;13.07;2.78;;;14.50;99.90;;;;;;5075986;28;20084;-88
2023/03/24 10:44:38;;;;;;;18.35;2.42;;;14.90;99.90;;;;;;5060045;28;20040;-86
2023/03/24 10:47:08;;;;;;;13.05;2.10;;;14.80;99.90;;;;;;5065243;28;20049;-84
2023/03/24 10:49:55;;;;;;;12.60;2.38;;;14.50;99.90;;;;;;5035773;28;20048;-85
2023/03/24 10:52:24;;;;;;;10.98;1.98;;;14.90;99.90;;;;;;5021850;28;20036;-87
2023/03/24 10:54:50;;;;;;;16.23;2.28;;;15.40;99.90;;;;;;5024826;28;20041;-88
2023/03/24 11:00:20;;;;;;;5.95;1.65;;;16.00;99.90;;;;;;5035098;28;20060;-88
2023/03/24 11:03:07;;;;;;;10.27;1.73;;;16.20;99.90;;;;;;5055558;28;20146;-86
2023/03/24 11:08:43;;;;;;;8.00;1.90;;;16.30;99.90;;;;;;5038211;28;20129;-87
2023/03/24 11:11:10;;;;;;;9.35;1.67;;;16.20;99.90;;;;;;5039089;28;20445;-86
2023/03/24 11:13:56;;;;;;;;;;;;;;;;;;;;;
2023/03/24 11:16:27;;;;;;;13.05;1.83;;;16.50;99.90;;;;;;5038621;28;20547;-86
2023/03/24 11:18:57;;;;;;;22.13;2.35;;;16.60;99.90;;;;;;5039352;28;20041;-88
2023/03/24 11:21:25;;;;;;;9.38;1.98;;;16.70;99.90;;;;;;5039005;28;20045;-87
2023/03/24 11:23:52;;;;;;;10.60;2.00;;;16.70;99.90;;;;;;5038554;28;20045;-88
2023/03/24 11:26:21;;;;;;;7.22;1.60;;;16.80;99.90;;;;;;5039198;28;20061;-87
2023/03/24 11:28:48;;;;;;;10.55;1.83;;;16.80;99.90;;;;;;5022021;28;20059;-87
2023/03/24 11:31:17;;;;;;;11.30;1.83;;;16.80;99.90;;;;;;5023039;28;20131;-87
2023/03/24 11:33:45;;;;;;;7.68;1.67;;;16.80;99.90;;;;;;5038805;28;20051;-87
2023/03/24 11:36:14;;;;;;;10.80;1.60;;;17.20;99.90;;;;;;5037204;28;20040;-86
2023/03/24 11:38:41;;;;;;;7.75;1.73;;;17.50;99.90;;;;;;5022410;28;20079;-87
2023/03/24 11:41:08;;;;;;;8.68;1.50;;;17.70;99.90;;;;;;5039062;28;20041;-87
2023/03/24 11:43:35;;;;;;;9.38;1.90;;;17.30;99.90;;;;;;5038265;28;20106;-87
2023/03/24 11:46:01;;;;;;;10.93;1.65;;;17.20;99.90;;;;;;5041749;28;20068;-86
2023/03/24 11:48:28;;;;;;;9.70;1.67;;;17.40;99.90;;;;;;5058155;28;20114;-86
2023/03/24 11:50:55;;;;;;;8.10;1.58;;;17.30;99.90;;;;;;5058709;28;20494;-86
2023/03/24 11:53:22;;;;;;;10.77;1.60;;;17.50;99.90;;;;;;5058153;28;20044;-87
2023/03/24 11:58:52;;;;;;;9.30;1.42;;;17.30;99.90;;;;;;5075598;28;20036;-87
2023/03/24 12:04:06;;;;;;;15.75;2.00;;;17.80;99.90;;;;;;5064573;28;20091;-86
2023/03/24 12:06:34;;;;;;;12.82;1.77;;;18.30;99.90;;;;;;5074596;28;20040;-87
2023/03/24 12:09:03;;;;;;;8.20;1.98;;;18.00;99.90;;;;;;5074145;28;20426;-86
2023/03/24 12:11:29;;;;;;;9.35;1.95;;;17.30;99.90;;;;;;5075021;28;20127;-87
2023/03/24 12:13:56;;;;;;;10.77;1.92;;;17.40;99.90;;;;;;5058048;28;20044;-87
2023/03/24 12:16:23;;;;;;;13.80;1.70;;;17.10;99.90;;;;;;5057490;28;20041;-87
2023/03/24 12:18:50;;;;;;;10.90;1.80;;;16.80;99.90;;;;;;5058198;28;20060;-87
2023/03/24 12:21:17;;;;;;;13.38;1.55;;;16.50;99.90;;;;;;5075249;28;20044;-88
2023/03/24 12:23:44;;;;;;;8.35;1.55;;;15.90;99.90;;;;;;5073596;28;20483;-87
2023/03/24 12:26:13;;;;;;;9.68;1.70;;;15.40;99.90;;;;;;5075573;28;20046;-87
2023/03/24 12:28:43;;;;;;;6.63;1.52;;;15.30;99.90;;;;;;5058748;28;20044;-90
2023/03/24 12:31:10;;;;;;;8.98;1.65;;;15.00;99.90;;;;;;5074701;28;20029;-87
2023/03/24 12:33:37;;;;;;;7.38;1.50;;;15.40;99.90;;;;;;5075364;28;20036;-86
2023/03/24 12:38:52;;;;;;;12.20;1.77;;;16.70;99.90;;;;;;5074140;28;20140;-88
2023/03/24 12:41:19;;;;;;;12.90;2.30;;;17.20;99.90;;;;;;5057923;28;20041;-87
2023/03/24 12:43:48;;;;;;;11.40;1.60;;;17.20;99.90;;;;;;5053394;28;20045;-87
2023/03/24 12:46:15;;;;;;;9.85;1.98;;;17.10;99.90;;;;;;5055741;28;20055;-87
2023/03/24 12:48:42;;;;;;;10.50;1.77;;;17.40;99.90;;;;;;5074285;28;20443;-84
2023/03/24 12:51:08;;;;;;;10.18;1.90;;;16.70;99.90;;;;;;5074196;28;20378;-85
2023/03/24 12:53:35;;;;;;;8.65;1.55;;;16.90;99.90;;;;;;5074317;28;20111;-86
2023/03/24 12:56:02;;;;;;;14.85;2.45;;;17.10;99.90;;;;;;5073466;28;20135;-86
2023/03/24 12:58:29;;;;;;;7.68;1.60;;;16.60;99.90;;;;;;5075358;28;20040;-84
2023/03/24 13:00:55;;;;;;;10.18;1.75;;;16.80;99.90;;;;;;5057620;28;20047;-85
2023/03/24 13:03:22;;;;;;;12.35;1.88;;;17.40;99.90;;;;;;5056402;28;20044;-84
2023/03/24 13:08:44;;;;;;;9.80;1.95;;;17.20;99.90;;;;;;5073035;28;20094;-85
2023/03/24 13:11:10;;;;;;;12.30;1.65;;;16.40;99.90;;;;;;5076100;28;20102;-85
2023/03/24 13:13:52;;;;;;;9.80;2.05;;;16.50;99.90;;;;;;5059816;28;20037;-86
2023/03/24 13:16:20;;;;;;;11.82;2.38;;;16.80;99.90;;;;;;5074150;28;20044;-86
2023/03/24 13:18:47;;;;;;;10.85;1.85;;;17.30;99.90;;;;;;5074267;28;20041;-86
2023/03/24 13:21:13;;;;;;;8.82;1.75;;;17.10;99.90;;;;;;5074909;28;20040;-86
2023/03/24 13:23:40;;;;;;;12.00;1.85;;;17.00;99.90;;;;;;5072904;28;20489;-87
2023/03/24 13:26:08;;;;;;;9.52;2.03;;;16.80;99.90;;;;;;5074090;28;20139;-85
2023/03/24 13:28:35;;;;;;;12.15;1.95;;;16.90;99.90;;;;;;5072858;28;20045;-83
2023/03/24 13:31:01;;;;;;;13.77;2.00;;;17.10;99.90;;;;;;5073863;28;20477;-85
2023/03/24 13:33:28;;;;;;;14.77;2.25;;;17.40;99.90;;;;;;5073802;28;20558;-83
2023/03/24 13:35:57;;;;;;;14.18;2.33;;;17.80;99.90;;;;;;5072779;28;20040;-84
2023/03/24 13:38:24;;;;;;;10.95;2.30;;;17.70;99.90;;;;;;5073919;28;20451;-87
2023/03/24 13:40:50;;;;;;;8.02;1.73;;;18.10;99.90;;;;;;5074671;28;20102;-87
2023/03/24 13:43:17;;;;;;;9.80;1.70;;;17.90;99.90;;;;;;5073440;28;20079;-86
2023/03/24 13:45:46;;;;;;;10.57;1.98;;;17.50;99.90;;;;;;5056468;28;20067;-85
2023/03/24 13:48:13;;;;;;;13.65;2.08;;;17.40;99.90;;;;;;5020932;28;20068;-85
2023/03/24 13:50:40;;;;;;;10.40;2.08;;;17.80;99.90;;;;;;5053730;28;20486;-87
2023/03/24 13:53:07;;;;;;;10.48;2.08;;;17.90;99.90;;;;;;5036865;28;20041;-84
2023/03/24 13:55:33;;;;;;;10.77;1.90;;;17.70;99.90;;;;;;5035923;28;20033;-86
2023/03/24 13:58:00;;;;;;;10.27;2.10;;;17.40;99.90;;;;;;5055419;28;20041;-87
2023/03/24 14:00:27;;;;;;;8.35;2.08;;;17.60;99.90;;;;;;5055748;28;20041;-86
2023/03/24 14:02:54;;;;;;;13.50;2.22;;;17.50;99.90;;;;;;5077382;28;20127;-86